sensor_id;sensor_type;location;lat;lon;timestamp;pressure;altitude;pressure_sealevel;temperature;humidity
16190;BME280;41754;51.498;7.540;2023-09-07T00:01:06;100817.13;;;16.58;85.35
16190;BME280;41754;51.498;7.540;2023-09-07T00:03:34;100806.69;;;16.66;85.29
16190;BME280;41754;51.498;7.540;2023-09-07T00:06:09;100809.13;;;16.58;85.42
16190;BME280;41754;51.498;7.540;2023-09-07T00:08:37;100814.94;;;16.52;85.75
16190;BME280;41754;51.498;7.540;2023-09-07T00:11:08;100803.16;;;16.45;85.76
16190;BME280;41754;51.498;7.540;2023-09-07T00:13:37;100807.31;;;16.26;87.89
16190;BME280;41754;51.498;7.540;2023-09-07T00:16:05;100802.47;;;16.20;87.75
16190;BME280;41754;51.498;7.540;2023-09-07T00:18:34;100799.13;;;16.18;88.30
16190;BME280;41754;51.498;7.540;2023-09-07T00:21:02;100809.03;;;16.16;88.52
16190;BME280;41754;51.498;7.540;2023-09-07T00:23:30;100800.59;;;16.11;88.66
16190;BME280;41754;51.498;7.540;2023-09-07T00:25:58;100809.63;;;16.20;87.85
16190;BME280;41754;51.498;7.540;2023-09-07T00:28:27;100812.75;;;16.25;86.90
16190;BME280;41754;51.498;7.540;2023-09-07T00:30:55;100803.94;;;16.24;86.71
16190;BME280;41754;51.498;7.540;2023-09-07T00:33:23;100808.25;;;16.25;86.51
16190;BME280;41754;51.498;7.540;2023-09-07T00:35:51;100812.25;;;16.31;86.21
16190;BME280;41754;51.498;7.540;2023-09-07T00:38:19;100808.25;;;16.25;86.13
16190;BME280;41754;51.498;7.540;2023-09-07T00:40:47;100812.97;;;16.33;86.26
16190;BME280;41754;51.498;7.540;2023-09-07T00:43:15;100806.22;;;16.29;86.19
16190;BME280;41754;51.498;7.540;2023-09-07T00:45:44;100809.00;;;16.27;86.67
16190;BME280;41754;51.498;7.540;2023-09-07T00:48:14;100817.91;;;16.38;86.28
16190;BME280;41754;51.498;7.540;2023-09-07T00:50:43;100819.41;;;16.19;86.67
16190;BME280;41754;51.498;7.540;2023-09-07T00:53:11;100815.69;;;15.99;88.54
16190;BME280;41754;51.498;7.540;2023-09-07T00:55:39;100817.97;;;15.92;88.42
16190;BME280;41754;51.498;7.540;2023-09-07T00:58:07;100815.69;;;15.88;88.69
16190;BME280;41754;51.498;7.540;2023-09-07T01:00:35;100814.97;;;15.97;88.59
16190;BME280;41754;51.498;7.540;2023-09-07T01:03:05;100806.72;;;16.00;88.10
16190;BME280;41754;51.498;7.540;2023-09-07T01:05:41;100806.25;;;16.06;88.11
16190;BME280;41754;51.498;7.540;2023-09-07T01:08:11;100809.19;;;15.81;88.91
16190;BME280;41754;51.498;7.540;2023-09-07T01:10:42;100808.59;;;15.77;89.38
16190;BME280;41754;51.498;7.540;2023-09-07T01:13:10;100805.28;;;15.62;90.23
16190;BME280;41754;51.498;7.540;2023-09-07T01:15:38;100797.94;;;15.66;90.06
16190;BME280;41754;51.498;7.540;2023-09-07T01:18:08;100803.00;;;15.57;90.68
16190;BME280;41754;51.498;7.540;2023-09-07T01:20:51;100794.31;;;15.55;90.73
16190;BME280;41754;51.498;7.540;2023-09-07T01:23:21;100786.72;;;15.62;90.62
16190;BME280;41754;51.498;7.540;2023-09-07T01:25:50;100787.31;;;15.54;90.66
16190;BME280;41754;51.498;7.540;2023-09-07T01:28:18;100790.69;;;15.68;90.28
16190;BME280;41754;51.498;7.540;2023-09-07T01:30:48;100778.88;;;15.49;90.94
16190;BME280;41754;51.498;7.540;2023-09-07T01:33:16;100782.25;;;15.40;91.83
16190;BME280;41754;51.498;7.540;2023-09-07T01:35:44;100781.91;;;15.33;92.18
16190;BME280;41754;51.498;7.540;2023-09-07T01:38:13;100782.97;;;15.42;91.67
16190;BME280;41754;51.498;7.540;2023-09-07T01:40:42;100782.97;;;15.42;91.46
16190;BME280;41754;51.498;7.540;2023-09-07T01:43:10;100778.97;;;15.36;91.71
16190;BME280;41754;51.498;7.540;2023-09-07T01:45:38;100782.72;;;15.34;91.97
16190;BME280;41754;51.498;7.540;2023-09-07T01:48:08;100782.00;;;15.32;91.98
16190;BME280;41754;51.498;7.540;2023-09-07T01:50:36;100786.69;;;15.28;92.33
16190;BME280;41754;51.498;7.540;2023-09-07T01:53:04;100782.47;;;15.26;92.33
16190;BME280;41754;51.498;7.540;2023-09-07T01:55:32;100780.31;;;15.31;91.88
16190;BME280;41754;51.498;7.540;2023-09-07T01:58:02;100781.06;;;15.44;91.21
16190;BME280;41754;51.498;7.540;2023-09-07T02:00:30;100784.66;;;15.43;90.82
16190;BME280;41754;51.498;7.540;2023-09-07T02:03:00;100780.81;;;15.36;90.81
16190;BME280;41754;51.498;7.540;2023-09-07T02:05:28;100788.97;;;15.33;91.00
16190;BME280;41754;51.498;7.540;2023-09-07T02:07:55;100788.25;;;15.19;91.81
16190;BME280;41754;51.498;7.540;2023-09-07T02:10:23;100787.53;;;15.29;91.46
16190;BME280;41754;51.498;7.540;2023-09-07T02:12:51;100786.56;;;15.18;91.73
16190;BME280;41754;51.498;7.540;2023-09-07T02:15:20;100783.53;;;15.23;91.89
16190;BME280;41754;51.498;7.540;2023-09-07T02:17:48;100783.22;;;15.39;90.71
16190;BME280;41754;51.498;7.540;2023-09-07T02:20:20;100785.41;;;15.45;90.42
16190;BME280;41754;51.498;7.540;2023-09-07T02:22:48;100788.06;;;15.45;89.91
16190;BME280;41754;51.498;7.540;2023-09-07T02:25:16;100788.38;;;15.29;90.82
16190;BME280;41754;51.498;7.540;2023-09-07T02:27:44;100784.66;;;15.32;90.69
16190;BME280;41754;51.498;7.540;2023-09-07T02:30:12;100783.44;;;15.13;91.46
16190;BME280;41754;51.498;7.540;2023-09-07T02:32:42;100784.03;;;15.17;91.33
16190;BME280;41754;51.498;7.540;2023-09-07T02:35:10;100784.78;;;15.30;90.61
16190;BME280;41754;51.498;7.540;2023-09-07T02:37:39;100790.56;;;15.35;90.23
16190;BME280;41754;51.498;7.540;2023-09-07T02:40:08;100782.72;;;15.23;90.58
16190;BME280;41754;51.498;7.540;2023-09-07T02:42:36;100787.16;;;15.11;91.02
16190;BME280;41754;51.498;7.540;2023-09-07T02:45:05;100784.88;;;15.17;90.68
16190;BME280;41754;51.498;7.540;2023-09-07T02:47:33;100782.06;;;15.08;91.14
16190;BME280;41754;51.498;7.540;2023-09-07T02:50:02;100782.41;;;15.03;91.50
16190;BME280;41754;51.498;7.540;2023-09-07T02:52:31;100782.69;;;15.00;91.62
16190;BME280;41754;51.498;7.540;2023-09-07T02:54:59;100783.84;;;14.96;92.10
16190;BME280;41754;51.498;7.540;2023-09-07T02:57:27;100782.41;;;14.92;92.06
16190;BME280;41754;51.498;7.540;2023-09-07T02:59:54;100775.44;;;15.02;91.52
16190;BME280;41754;51.498;7.540;2023-09-07T03:02:22;100781.38;;;15.17;90.67
16190;BME280;41754;51.498;7.540;2023-09-07T03:04:53;100777.84;;;14.94;91.12
16190;BME280;41754;51.498;7.540;2023-09-07T03:07:23;100774.31;;;14.82;92.11
16190;BME280;41754;51.498;7.540;2023-09-07T03:09:51;100771.06;;;14.78;92.52
16190;BME280;41754;51.498;7.540;2023-09-07T03:12:20;100779.00;;;14.90;92.37
16190;BME280;41754;51.498;7.540;2023-09-07T03:14:48;100781.22;;;14.96;91.70
16190;BME280;41754;51.498;7.540;2023-09-07T03:17:17;100777.88;;;15.05;91.22
16190;BME280;41754;51.498;7.540;2023-09-07T03:19:47;100777.75;;;15.18;90.97
16190;BME280;41754;51.498;7.540;2023-09-07T03:22:15;100778.72;;;15.17;90.14
16190;BME280;41754;51.498;7.540;2023-09-07T03:24:44;100775.38;;;14.79;91.58
16190;BME280;41754;51.498;7.540;2023-09-07T03:27:12;100774.97;;;14.61;92.94
16190;BME280;41754;51.498;7.540;2023-09-07T03:29:41;100772.97;;;14.52;93.69
16190;BME280;41754;51.498;7.540;2023-09-07T03:32:09;100772.34;;;14.48;94.07
16190;BME280;41754;51.498;7.540;2023-09-07T03:34:38;100770.09;;;14.55;94.09
16190;BME280;41754;51.498;7.540;2023-09-07T03:37:05;100776.84;;;14.83;92.94
16190;BME280;41754;51.498;7.540;2023-09-07T03:39:33;100780.97;;;14.99;92.11
16190;BME280;41754;51.498;7.540;2023-09-07T03:42:03;100778.72;;;15.06;91.10
16190;BME280;41754;51.498;7.540;2023-09-07T03:44:31;100778.56;;;14.96;90.91
16190;BME280;41754;51.498;7.540;2023-09-07T03:47:00;100779.69;;;14.69;91.87
16190;BME280;41754;51.498;7.540;2023-09-07T03:49:28;100780.06;;;14.52;92.99
16190;BME280;41754;51.498;7.540;2023-09-07T03:51:56;100782.72;;;14.52;93.11
16190;BME280;41754;51.498;7.540;2023-09-07T03:54:24;100783.88;;;14.47;93.22
16190;BME280;41754;51.498;7.540;2023-09-07T03:56:52;100781.75;;;14.28;94.12
16190;BME280;41754;51.498;7.540;2023-09-07T03:59:21;100771.56;;;14.35;94.16
16190;BME280;41754;51.498;7.540;2023-09-07T04:01:49;100774.78;;;14.52;93.59
16190;BME280;41754;51.498;7.540;2023-09-07T04:04:17;100780.28;;;14.48;93.08
16190;BME280;41754;51.498;7.540;2023-09-07T04:06:46;100776.41;;;14.41;93.53
16190;BME280;41754;51.498;7.540;2023-09-07T04:09:15;100769.06;;;14.21;94.16
16190;BME280;41754;51.498;7.540;2023-09-07T04:11:43;100782.88;;;14.13;94.94
16190;BME280;41754;51.498;7.540;2023-09-07T04:14:11;100775.47;;;14.05;95.50
16190;BME280;41754;51.498;7.540;2023-09-07T04:16:40;100780.03;;;14.03;95.66
16190;BME280;41754;51.498;7.540;2023-09-07T04:19:09;100777.59;;;14.00;95.83
16190;BME280;41754;51.498;7.540;2023-09-07T04:21:37;100774.22;;;13.98;95.58
16190;BME280;41754;51.498;7.540;2023-09-07T04:24:06;100778.78;;;13.96;95.85
16190;BME280;41754;51.498;7.540;2023-09-07T04:26:37;100775.06;;;13.99;95.88
16190;BME280;41754;51.498;7.540;2023-09-07T04:29:06;100782.75;;;14.15;94.96
16190;BME280;41754;51.498;7.540;2023-09-07T04:31:34;100781.56;;;14.19;94.25
16190;BME280;41754;51.498;7.540;2023-09-07T04:34:04;100780.91;;;14.28;93.83
16190;BME280;41754;51.498;7.540;2023-09-07T04:36:32;100777.78;;;14.34;93.32
16190;BME280;41754;51.498;7.540;2023-09-07T04:39:00;100784.56;;;14.38;93.11
16190;BME280;41754;51.498;7.540;2023-09-07T04:41:30;100774.50;;;14.43;92.52
16190;BME280;41754;51.498;7.540;2023-09-07T04:43:58;100778.16;;;14.54;92.05
16190;BME280;41754;51.498;7.540;2023-09-07T04:46:26;100780.25;;;14.61;91.88
16190;BME280;41754;51.498;7.540;2023-09-07T04:48:54;100785.19;;;14.66;91.27
16190;BME280;41754;51.498;7.540;2023-09-07T04:51:24;100784.38;;;14.53;91.13
16190;BME280;41754;51.498;7.540;2023-09-07T04:53:53;100787.00;;;14.65;91.39
16190;BME280;41754;51.498;7.540;2023-09-07T04:56:21;100781.81;;;14.64;90.89
16190;BME280;41754;51.498;7.540;2023-09-07T04:58:49;100776.41;;;14.65;90.55
16190;BME280;41754;51.498;7.540;2023-09-07T05:01:17;100785.69;;;14.47;90.47
16190;BME280;41754;51.498;7.540;2023-09-07T05:03:46;100786.19;;;14.52;91.11
16190;BME280;41754;51.498;7.540;2023-09-07T05:06:14;100782.53;;;14.42;91.38
16190;BME280;41754;51.498;7.540;2023-09-07T05:08:43;100781.22;;;14.47;91.64
16190;BME280;41754;51.498;7.540;2023-09-07T05:11:11;100784.00;;;14.46;91.30
16190;BME280;41754;51.498;7.540;2023-09-07T05:13:39;100791.44;;;14.41;91.12
16190;BME280;41754;51.498;7.540;2023-09-07T05:16:07;100792.13;;;14.32;91.45
16190;BME280;41754;51.498;7.540;2023-09-07T05:18:35;100791.81;;;14.23;91.83
16190;BME280;41754;51.498;7.540;2023-09-07T05:21:11;100789.88;;;14.01;93.18
16190;BME280;41754;51.498;7.540;2023-09-07T05:23:39;100786.94;;;13.93;93.89
16190;BME280;41754;51.498;7.540;2023-09-07T05:26:09;100787.78;;;13.94;93.98
16190;BME280;41754;51.498;7.540;2023-09-07T05:28:39;100794.41;;;14.12;93.49
16190;BME280;41754;51.498;7.540;2023-09-07T05:31:07;100794.50;;;14.10;93.32
16190;BME280;41754;51.498;7.540;2023-09-07T05:33:36;100792.66;;;14.24;92.50
16190;BME280;41754;51.498;7.540;2023-09-07T05:36:04;100792.94;;;14.32;92.56
16190;BME280;41754;51.498;7.540;2023-09-07T05:38:32;100786.31;;;14.51;91.96
16190;BME280;41754;51.498;7.540;2023-09-07T05:41:00;100789.88;;;14.62;91.21
16190;BME280;41754;51.498;7.540;2023-09-07T05:43:29;100784.69;;;14.61;90.96
16190;BME280;41754;51.498;7.540;2023-09-07T05:45:58;100799.44;;;14.52;91.60
16190;BME280;41754;51.498;7.540;2023-09-07T05:48:26;100793.09;;;14.55;91.67
16190;BME280;41754;51.498;7.540;2023-09-07T05:50:54;100795.41;;;14.59;91.48
16190;BME280;41754;51.498;7.540;2023-09-07T05:53:22;100796.34;;;14.82;90.99
16190;BME280;41754;51.498;7.540;2023-09-07T05:55:51;100806.53;;;15.11;89.92
16190;BME280;41754;51.498;7.540;2023-09-07T05:58:19;100801.00;;;15.14;89.00
16190;BME280;41754;51.498;7.540;2023-09-07T06:00:48;100795.97;;;15.23;88.85
16190;BME280;41754;51.498;7.540;2023-09-07T06:03:17;100803.22;;;15.43;88.36
16190;BME280;41754;51.498;7.540;2023-09-07T06:05:45;100799.75;;;15.65;87.46
16190;BME280;41754;51.498;7.540;2023-09-07T06:08:13;100807.81;;;15.75;86.87
16190;BME280;41754;51.498;7.540;2023-09-07T06:10:41;100811.69;;;15.93;86.28
16190;BME280;41754;51.498;7.540;2023-09-07T06:13:09;100808.31;;;16.14;85.69
16190;BME280;41754;51.498;7.540;2023-09-07T06:15:37;100801.38;;;16.34;84.39
16190;BME280;41754;51.498;7.540;2023-09-07T06:18:06;100800.38;;;16.46;83.00
16190;BME280;41754;51.498;7.540;2023-09-07T06:20:35;100801.63;;;16.63;82.99
16190;BME280;41754;51.498;7.540;2023-09-07T06:23:03;100798.69;;;16.78;82.21
16190;BME280;41754;51.498;7.540;2023-09-07T06:25:31;100796.59;;;16.93;81.33
16190;BME280;41754;51.498;7.540;2023-09-07T06:28:00;100803.97;;;17.10;80.78
16190;BME280;41754;51.498;7.540;2023-09-07T06:30:29;100796.38;;;17.27;80.19
16190;BME280;41754;51.498;7.540;2023-09-07T06:32:57;100799.69;;;17.40;79.06
16190;BME280;41754;51.498;7.540;2023-09-07T06:35:27;100805.25;;;17.58;78.08
16190;BME280;41754;51.498;7.540;2023-09-07T06:37:55;100808.50;;;17.71;77.60
16190;BME280;41754;51.498;7.540;2023-09-07T06:40:25;100813.94;;;17.91;76.52
16190;BME280;41754;51.498;7.540;2023-09-07T06:42:55;100817.91;;;18.06;76.01
16190;BME280;41754;51.498;7.540;2023-09-07T06:45:25;100813.72;;;18.23;74.87
16190;BME280;41754;51.498;7.540;2023-09-07T06:47:53;100818.94;;;18.34;73.84
16190;BME280;41754;51.498;7.540;2023-09-07T06:50:24;100820.78;;;18.44;72.85
16190;BME280;41754;51.498;7.540;2023-09-07T06:52:53;100823.19;;;18.66;72.79
16190;BME280;41754;51.498;7.540;2023-09-07T06:55:22;100816.34;;;18.83;72.41
16190;BME280;41754;51.498;7.540;2023-09-07T06:57:50;100823.50;;;18.93;71.50
16190;BME280;41754;51.498;7.540;2023-09-07T07:00:17;100823.06;;;19.07;70.61
16190;BME280;41754;51.498;7.540;2023-09-07T07:02:45;100825.31;;;19.12;70.19
16190;BME280;41754;51.498;7.540;2023-09-07T07:05:14;100825.28;;;19.31;69.59
16190;BME280;41754;51.498;7.540;2023-09-07T07:07:42;100822.84;;;19.48;68.30
16190;BME280;41754;51.498;7.540;2023-09-07T07:10:11;100832.75;;;19.65;67.56
16190;BME280;41754;51.498;7.540;2023-09-07T07:12:40;100826.13;;;19.79;67.45
16190;BME280;41754;51.498;7.540;2023-09-07T07:15:08;100828.03;;;19.96;66.24
16190;BME280;41754;51.498;7.540;2023-09-07T07:17:38;100831.28;;;20.18;66.23
16190;BME280;41754;51.498;7.540;2023-09-07T07:20:07;100835.03;;;20.25;64.88
16190;BME280;41754;51.498;7.540;2023-09-07T07:22:35;100833.22;;;20.44;64.01
16190;BME280;41754;51.498;7.540;2023-09-07T07:25:05;100831.41;;;20.62;64.20
16190;BME280;41754;51.498;7.540;2023-09-07T07:27:35;100835.25;;;20.78;62.76
16190;BME280;41754;51.498;7.540;2023-09-07T07:30:03;100826.41;;;20.95;61.98
16190;BME280;41754;51.498;7.540;2023-09-07T07:32:31;100825.34;;;21.14;61.65
16190;BME280;41754;51.498;7.540;2023-09-07T07:35:00;100825.16;;;21.34;61.83
16190;BME280;41754;51.498;7.540;2023-09-07T07:37:28;100829.97;;;21.48;60.84
16190;BME280;41754;51.498;7.540;2023-09-07T07:39:55;100817.84;;;21.62;60.27
16190;BME280;41754;51.498;7.540;2023-09-07T07:42:24;100820.25;;;21.81;59.63
16190;BME280;41754;51.498;7.540;2023-09-07T07:44:54;100825.53;;;21.99;58.44
16190;BME280;41754;51.498;7.540;2023-09-07T07:47:21;100821.06;;;22.16;57.67
16190;BME280;41754;51.498;7.540;2023-09-07T07:49:49;100820.47;;;22.31;56.55
16190;BME280;41754;51.498;7.540;2023-09-07T07:52:17;100831.56;;;22.44;55.94
16190;BME280;41754;51.498;7.540;2023-09-07T07:54:45;100824.22;;;22.63;55.39
16190;BME280;41754;51.498;7.540;2023-09-07T07:57:14;100831.59;;;22.77;54.84
16190;BME280;41754;51.498;7.540;2023-09-07T07:59:42;100824.56;;;22.92;54.73
16190;BME280;41754;51.498;7.540;2023-09-07T08:02:11;100821.53;;;22.95;53.35
16190;BME280;41754;51.498;7.540;2023-09-07T08:04:40;100817.88;;;23.13;52.42
16190;BME280;41754;51.498;7.540;2023-09-07T08:07:09;100821.22;;;23.31;52.03
16190;BME280;41754;51.498;7.540;2023-09-07T08:09:38;100823.63;;;23.66;52.15
16190;BME280;41754;51.498;7.540;2023-09-07T08:12:06;100826.44;;;23.81;51.57
16190;BME280;41754;51.498;7.540;2023-09-07T08:14:35;100827.94;;;23.92;50.40
16190;BME280;41754;51.498;7.540;2023-09-07T08:17:04;100817.97;;;24.08;50.37
16190;BME280;41754;51.498;7.540;2023-09-07T08:19:33;100822.16;;;24.34;51.01
16190;BME280;41754;51.498;7.540;2023-09-07T08:22:02;100830.31;;;24.49;49.31
16190;BME280;41754;51.498;7.540;2023-09-07T08:24:31;100832.09;;;24.34;49.39
16190;BME280;41754;51.498;7.540;2023-09-07T08:27:00;100830.53;;;24.39;49.57
16190;BME280;41754;51.498;7.540;2023-09-07T08:29:28;100824.41;;;24.54;49.28
16190;BME280;41754;51.498;7.540;2023-09-07T08:31:59;100824.63;;;24.75;48.16
16190;BME280;41754;51.498;7.540;2023-09-07T08:34:31;100820.84;;;24.85;47.74
16190;BME280;41754;51.498;7.540;2023-09-07T08:37:00;100824.56;;;24.98;47.36
16190;BME280;41754;51.498;7.540;2023-09-07T08:39:28;100823.16;;;24.88;47.18
16190;BME280;41754;51.498;7.540;2023-09-07T08:41:56;100824.25;;;25.16;47.64
16190;BME280;41754;51.498;7.540;2023-09-07T08:44:29;100823.13;;;25.34;47.39
16190;BME280;41754;51.498;7.540;2023-09-07T08:46:57;100823.41;;;25.39;46.00
16190;BME280;41754;51.498;7.540;2023-09-07T08:49:26;100824.78;;;25.50;46.94
16190;BME280;41754;51.498;7.540;2023-09-07T08:51:58;100820.91;;;25.52;45.58
16190;BME280;41754;51.498;7.540;2023-09-07T08:54:28;100824.53;;;25.60;45.09
16190;BME280;41754;51.498;7.540;2023-09-07T08:56:57;100822.84;;;25.59;45.32
16190;BME280;41754;51.498;7.540;2023-09-07T08:59:24;100819.69;;;25.70;45.20
16190;BME280;41754;51.498;7.540;2023-09-07T09:01:56;100819.13;;;25.74;44.23
16190;BME280;41754;51.498;7.540;2023-09-07T09:04:25;100823.56;;;25.67;44.55
16190;BME280;41754;51.498;7.540;2023-09-07T09:06:54;100817.06;;;25.62;43.81
16190;BME280;41754;51.498;7.540;2023-09-07T09:09:23;100820.13;;;25.59;45.28
16190;BME280;41754;51.498;7.540;2023-09-07T09:11:52;100821.19;;;25.72;45.13
16190;BME280;41754;51.498;7.540;2023-09-07T09:14:21;100812.69;;;25.61;44.88
16190;BME280;41754;51.498;7.540;2023-09-07T09:16:49;100813.47;;;25.54;43.67
16190;BME280;41754;51.498;7.540;2023-09-07T09:19:18;100815.88;;;25.79;44.39
16190;BME280;41754;51.498;7.540;2023-09-07T09:21:45;100815.75;;;26.02;44.17
16190;BME280;41754;51.498;7.540;2023-09-07T09:24:13;100815.47;;;26.12;44.30
16190;BME280;41754;51.498;7.540;2023-09-07T09:26:42;100817.41;;;26.18;43.19
16190;BME280;41754;51.498;7.540;2023-09-07T09:29:11;100816.25;;;26.27;44.05
16190;BME280;41754;51.498;7.540;2023-09-07T09:31:39;100816.69;;;26.09;43.05
16190;BME280;41754;51.498;7.540;2023-09-07T09:34:08;100822.13;;;26.31;43.93
16190;BME280;41754;51.498;7.540;2023-09-07T09:36:36;100813.84;;;26.54;43.42
16190;BME280;41754;51.498;7.540;2023-09-07T09:39:04;100815.75;;;26.39;44.69
16190;BME280;41754;51.498;7.540;2023-09-07T09:41:33;100820.78;;;26.42;42.50
16190;BME280;41754;51.498;7.540;2023-09-07T09:44:02;100813.66;;;26.19;43.49
16190;BME280;41754;51.498;7.540;2023-09-07T09:46:32;100816.38;;;26.19;43.62
16190;BME280;41754;51.498;7.540;2023-09-07T09:49:00;100809.03;;;26.28;43.27
16190;BME280;41754;51.498;7.540;2023-09-07T09:51:30;100803.91;;;26.55;44.11
16190;BME280;41754;51.498;7.540;2023-09-07T09:54:00;100808.72;;;26.81;43.34
16190;BME280;41754;51.498;7.540;2023-09-07T09:56:29;100808.72;;;26.81;43.17
16190;BME280;41754;51.498;7.540;2023-09-07T09:58:57;100799.59;;;26.82;42.43
16190;BME280;41754;51.498;7.540;2023-09-07T10:01:24;100796.53;;;26.85;42.90
16190;BME280;41754;51.498;7.540;2023-09-07T10:03:54;100793.94;;;26.77;42.72
16190;BME280;41754;51.498;7.540;2023-09-07T10:06:26;100792.53;;;26.81;42.25
16190;BME280;41754;51.498;7.540;2023-09-07T10:08:59;100797.00;;;26.95;41.79
16190;BME280;41754;51.498;7.540;2023-09-07T10:11:29;100788.28;;;26.93;42.34
16190;BME280;41754;51.498;7.540;2023-09-07T10:13:58;100782.63;;;26.88;43.49
16190;BME280;41754;51.498;7.540;2023-09-07T10:16:26;100779.31;;;26.93;43.07
16190;BME280;41754;51.498;7.540;2023-09-07T10:18:56;100786.84;;;26.97;42.00
16190;BME280;41754;51.498;7.540;2023-09-07T10:21:24;100781.88;;;27.01;42.80
16190;BME280;41754;51.498;7.540;2023-09-07T10:23:53;100777.66;;;27.20;42.79
16190;BME280;41754;51.498;7.540;2023-09-07T10:26:21;100779.66;;;27.39;42.81
16190;BME280;41754;51.498;7.540;2023-09-07T10:28:58;100778.41;;;27.35;42.34
16190;BME280;41754;51.498;7.540;2023-09-07T10:31:27;100778.75;;;27.61;41.94
16190;BME280;41754;51.498;7.540;2023-09-07T10:34:21;100783.28;;;27.95;41.12
16190;BME280;41754;51.498;7.540;2023-09-07T10:36:56;100785.28;;;28.41;41.34
16190;BME280;41754;51.498;7.540;2023-09-07T10:39:24;100785.06;;;28.29;43.68
16190;BME280;41754;51.498;7.540;2023-09-07T10:41:56;100775.25;;;28.22;40.44
16190;BME280;41754;51.498;7.540;2023-09-07T10:44:27;100770.47;;;28.17;41.19
16190;BME280;41754;51.498;7.540;2023-09-07T10:46:56;100769.56;;;29.77;40.64
16190;BME280;41754;51.498;7.540;2023-09-07T10:49:26;100772.47;;;30.78;36.18
16190;BME280;41754;51.498;7.540;2023-09-07T10:51:54;100766.47;;;31.38;34.01
16190;BME280;41754;51.498;7.540;2023-09-07T10:54:23;100764.53;;;31.63;33.41
16190;BME280;41754;51.498;7.540;2023-09-07T10:56:53;100761.81;;;31.94;32.44
16190;BME280;41754;51.498;7.540;2023-09-07T10:59:27;100759.34;;;33.36;29.88
16190;BME280;41754;51.498;7.540;2023-09-07T11:02:03;100758.28;;;32.89;29.91
16190;BME280;41754;51.498;7.540;2023-09-07T11:04:33;100752.44;;;33.45;30.69
16190;BME280;41754;51.498;7.540;2023-09-07T11:07:01;100750.13;;;33.77;29.21
16190;BME280;41754;51.498;7.540;2023-09-07T11:09:31;100755.28;;;34.70;28.59
16190;BME280;41754;51.498;7.540;2023-09-07T11:12:03;100747.94;;;34.88;27.11
16190;BME280;41754;51.498;7.540;2023-09-07T11:14:32;100743.94;;;35.57;25.70
16190;BME280;41754;51.498;7.540;2023-09-07T11:17:00;100744.00;;;36.76;25.14
16190;BME280;41754;51.498;7.540;2023-09-07T11:19:33;100745.25;;;36.95;25.38
16190;BME280;41754;51.498;7.540;2023-09-07T11:22:01;100746.28;;;36.89;25.66
16190;BME280;41754;51.498;7.540;2023-09-07T11:24:31;100748.44;;;38.39;23.18
16190;BME280;41754;51.498;7.540;2023-09-07T11:27:00;100739.03;;;37.94;23.22
16190;BME280;41754;51.498;7.540;2023-09-07T11:29:31;100737.44;;;38.19;23.10
16190;BME280;41754;51.498;7.540;2023-09-07T11:32:05;100727.81;;;38.11;22.73
16190;BME280;41754;51.498;7.540;2023-09-07T11:34:35;100733.69;;;35.69;25.55
16190;BME280;41754;51.498;7.540;2023-09-07T11:37:03;100735.03;;;37.44;23.96
16190;BME280;41754;51.498;7.540;2023-09-07T11:39:31;100736.84;;;38.89;23.11
16190;BME280;41754;51.498;7.540;2023-09-07T11:41:59;100738.00;;;38.52;22.50
16190;BME280;41754;51.498;7.540;2023-09-07T11:44:27;100734.94;;;38.12;22.98
16190;BME280;41754;51.498;7.540;2023-09-07T11:46:54;100728.44;;;39.35;20.89
16190;BME280;41754;51.498;7.540;2023-09-07T11:49:23;100736.78;;;40.83;19.88
16190;BME280;41754;51.498;7.540;2023-09-07T11:51:52;100725.03;;;40.43;19.37
16190;BME280;41754;51.498;7.540;2023-09-07T11:54:20;100721.81;;;39.41;20.37
16190;BME280;41754;51.498;7.540;2023-09-07T11:56:49;100713.88;;;39.29;22.28
16190;BME280;41754;51.498;7.540;2023-09-07T11:59:17;100718.81;;;40.56;19.85
16190;BME280;41754;51.498;7.540;2023-09-07T12:01:45;100717.75;;;39.23;21.62
16190;BME280;41754;51.498;7.540;2023-09-07T12:04:13;100710.75;;;39.46;22.87
16190;BME280;41754;51.498;7.540;2023-09-07T12:06:41;100713.94;;;41.64;20.15
16190;BME280;41754;51.498;7.540;2023-09-07T12:09:11;100708.69;;;39.78;22.00
16190;BME280;41754;51.498;7.540;2023-09-07T12:11:39;100717.44;;;40.24;21.42
16190;BME280;41754;51.498;7.540;2023-09-07T12:14:08;100707.22;;;41.32;20.24
16190;BME280;41754;51.498;7.540;2023-09-07T12:16:36;100710.53;;;38.31;23.97
16190;BME280;41754;51.498;7.540;2023-09-07T12:19:04;100712.00;;;41.45;20.33
16190;BME280;41754;51.498;7.540;2023-09-07T12:21:32;100701.69;;;41.32;19.99
16190;BME280;41754;51.498;7.540;2023-09-07T12:24:00;100697.97;;;41.80;20.12
16190;BME280;41754;51.498;7.540;2023-09-07T12:26:29;100701.81;;;40.49;21.47
16190;BME280;41754;51.498;7.540;2023-09-07T12:28:57;100696.19;;;40.59;21.84
16190;BME280;41754;51.498;7.540;2023-09-07T12:31:25;100687.44;;;40.18;22.56
16190;BME280;41754;51.498;7.540;2023-09-07T12:33:53;100691.81;;;40.77;20.32
16190;BME280;41754;51.498;7.540;2023-09-07T12:36:21;100684.81;;;39.63;21.87
16190;BME280;41754;51.498;7.540;2023-09-07T12:38:49;100691.34;;;40.12;20.92
16190;BME280;41754;51.498;7.540;2023-09-07T12:41:17;100695.38;;;40.83;20.78
16190;BME280;41754;51.498;7.540;2023-09-07T12:43:46;100688.56;;;39.77;21.73
16190;BME280;41754;51.498;7.540;2023-09-07T12:46:14;100679.34;;;41.66;20.10
16190;BME280;41754;51.498;7.540;2023-09-07T12:48:42;100681.66;;;39.80;22.00
16190;BME280;41754;51.498;7.540;2023-09-07T12:51:11;100681.22;;;40.36;21.60
16190;BME280;41754;51.498;7.540;2023-09-07T12:53:38;100671.16;;;41.61;19.63
16190;BME280;41754;51.498;7.540;2023-09-07T12:56:06;100676.69;;;40.75;20.46
16190;BME280;41754;51.498;7.540;2023-09-07T12:58:34;100675.47;;;39.98;21.49